createdAt,value
2022-10-02T00:00:19.169Z,6.85
2022-10-02T00:03:11.107Z,7.30
2022-10-02T00:05:43.585Z,7.60
2022-10-02T00:08:15.951Z,7.45
2022-10-02T00:10:48.273Z,7.05
2022-10-02T00:13:26.629Z,7.68
2022-10-02T00:15:53.450Z,7.38
2022-10-02T00:18:26.111Z,8.65
2022-10-02T00:21:05.030Z,8.38
2022-10-02T00:23:44.477Z,7.82
2022-10-02T00:26:17.255Z,8.05
2022-10-02T00:28:51.182Z,6.10
2022-10-02T00:31:33.290Z,6.50
2022-10-02T00:34:02.602Z,5.53
2022-10-02T00:36:35.630Z,5.50
2022-10-02T00:39:15.480Z,6.78
2022-10-02T00:41:50.877Z,5.68
2022-10-02T00:44:28.413Z,6.65
2022-10-02T00:47:16.095Z,6.30
2022-10-02T00:50:19.397Z,6.22
2022-10-02T00:52:48.721Z,5.90
2022-10-02T00:55:30.299Z,5.30
2022-10-02T00:57:56.617Z,5.13
2022-10-02T01:00:23.308Z,5.22
2022-10-02T01:03:18.344Z,5.15
2022-10-02T01:05:45.183Z,5.57
2022-10-02T01:08:11.633Z,5.93
2022-10-02T01:10:38.314Z,5.18
2022-10-02T01:13:05.052Z,5.00
2022-10-02T01:15:52.890Z,5.82
2022-10-02T01:18:21.683Z,6.53
2022-10-02T01:20:53.550Z,5.68
2022-10-02T01:23:23.207Z,6.10
2022-10-02T01:25:50.002Z,6.50
2022-10-02T01:28:17.007Z,6.43
2022-10-02T01:30:48.108Z,5.25
2022-10-02T01:35:41.108Z,6.20
2022-10-02T01:38:13.665Z,6.13
2022-10-02T01:40:40.884Z,4.90
2022-10-02T01:43:17.488Z,5.35
2022-10-02T01:45:52.070Z,6.38
2022-10-02T01:48:37.062Z,6.00
2022-10-02T01:51:29.174Z,5.28
2022-10-02T01:54:34.277Z,7.53
2022-10-02T01:57:06.583Z,6.25
2022-10-02T01:59:44.755Z,7.38
2022-10-02T02:02:24.206Z,5.88
2022-10-02T02:05:15.039Z,6.82
2022-10-02T02:07:49.281Z,5.88
2022-10-02T02:10:25.499Z,6.15
2022-10-02T02:13:02.703Z,6.07
2022-10-02T02:15:33.509Z,8.25
2022-10-02T02:18:31.242Z,4.88
2022-10-02T02:21:04.189Z,6.15
2022-10-02T02:23:32.928Z,5.68
2022-10-02T02:26:04.216Z,5.53
2022-10-02T02:28:32.733Z,6.82
2022-10-02T02:31:00.819Z,6.22
2022-10-02T02:33:37.138Z,7.75
2022-10-02T02:36:07.449Z,6.70
2022-10-02T02:38:38.305Z,7.05
2022-10-02T02:41:09.028Z,5.88
2022-10-02T02:43:42.767Z,6.55
2022-10-02T02:46:22.056Z,6.78
2022-10-02T02:48:52.743Z,6.38
2022-10-02T02:51:23.675Z,7.15
2022-10-02T02:53:51.882Z,6.95
2022-10-02T02:56:20.225Z,6.57
2022-10-02T02:58:52.001Z,8.60
2022-10-02T03:01:18.576Z,7.32
2022-10-02T03:03:45.199Z,8.02
2022-10-02T03:06:20.303Z,7.90
2022-10-02T03:08:50.269Z,7.40
2022-10-02T03:11:55.287Z,7.90
2022-10-02T03:14:33.791Z,5.47
2022-10-02T03:17:25.102Z,6.60
2022-10-02T03:20:23.802Z,7.57
2022-10-02T03:23:19.947Z,6.18
2022-10-02T03:26:21.912Z,6.70
2022-10-02T03:28:56.648Z,5.35
2022-10-02T03:31:25.616Z,5.72
2022-10-02T03:33:53.747Z,6.65
2022-10-02T03:36:24.489Z,7.72
2022-10-02T03:39:12.608Z,8.02
2022-10-02T03:41:39.199Z,5.97
2022-10-02T03:44:05.657Z,6.95
2022-10-02T03:46:32.228Z,6.82
2022-10-02T03:48:58.870Z,6.18
2022-10-02T03:51:25.278Z,7.80
2022-10-02T03:53:52.260Z,5.88
2022-10-02T03:56:50.124Z,7.88
2022-10-02T03:59:45.784Z,6.72
2022-10-02T04:02:28.245Z,7.35
2022-10-02T04:05:02.264Z,6.50
2022-10-02T04:07:37.399Z,9.27
2022-10-02T04:10:12.827Z,7.43
2022-10-02T04:12:42.200Z,6.75
2022-10-02T04:15:16.612Z,7.53
2022-10-02T04:18:16.001Z,6.18
2022-10-02T04:20:47.579Z,8.88
2022-10-02T04:23:32.238Z,7.45
2022-10-02T04:26:08.715Z,8.15
2022-10-02T04:28:39.681Z,6.57
2022-10-02T04:33:38.540Z,7.22
2022-10-02T04:36:17.894Z,5.80
2022-10-02T04:39:10.486Z,5.90
2022-10-02T04:41:39.575Z,7.22
2022-10-02T04:44:30.634Z,5.60
2022-10-02T04:47:34.231Z,5.97
2022-10-02T04:50:12.834Z,6.55
2022-10-02T04:52:51.360Z,5.47
2022-10-02T04:55:59.636Z,5.70
2022-10-02T04:58:29.096Z,7.05
2022-10-02T05:00:58.420Z,4.80
2022-10-02T05:03:49.495Z,5.32
2022-10-02T05:06:34.373Z,4.97
2022-10-02T05:09:16.860Z,4.63
2022-10-02T05:12:09.584Z,5.95
2022-10-02T05:14:53.185Z,6.05
2022-10-02T05:17:40.637Z,5.45
2022-10-02T05:20:29.011Z,5.45
2022-10-02T05:23:14.225Z,5.45
2022-10-02T05:26:01.745Z,5.18
2022-10-02T05:29:03.197Z,4.40
2022-10-02T05:31:48.223Z,4.05
2022-10-02T05:34:26.773Z,3.78
2022-10-02T05:36:56.417Z,4.15
2022-10-02T05:39:27.647Z,4.13
2022-10-02T05:42:03.013Z,4.38
2022-10-02T05:44:42.359Z,4.85
2022-10-02T05:47:18.064Z,5.00
2022-10-02T05:49:58.841Z,4.28
2022-10-02T05:53:06.153Z,4.85
2022-10-02T05:55:40.989Z,4.55
2022-10-02T05:58:23.464Z,5.00
2022-10-02T06:01:06.560Z,5.10
2022-10-02T06:03:58.777Z,4.10
2022-10-02T06:06:47.087Z,5.18
2022-10-02T06:09:19.972Z,4.90
2022-10-02T06:11:58.280Z,5.32
2022-10-02T06:14:30.874Z,5.97
2022-10-02T06:17:04.567Z,5.35
2022-10-02T06:19:37.723Z,5.25
2022-10-02T06:22:17.357Z,5.10
2022-10-02T06:25:02.466Z,6.22
2022-10-02T06:27:38.957Z,6.32
2022-10-02T06:30:17.157Z,5.53
2022-10-02T06:33:09.886Z,5.93
2022-10-02T06:35:48.266Z,6.00
2022-10-02T06:38:18.247Z,6.60
2022-10-02T06:41:09.914Z,5.88
2022-10-02T06:44:17.733Z,7.35
2022-10-02T06:46:51.521Z,6.55
2022-10-02T06:49:36.648Z,7.28
2022-10-02T06:52:12.689Z,7.20
2022-10-02T06:54:46.146Z,6.28
2022-10-02T06:57:18.534Z,6.53
2022-10-02T07:00:12.198Z,5.95
2022-10-02T07:02:47.477Z,6.68
2022-10-02T07:05:29.207Z,5.93
2022-10-02T07:08:07.549Z,7.00
2022-10-02T07:10:39.223Z,7.10
2022-10-02T07:13:17.885Z,6.32
2022-10-02T07:16:12.537Z,6.80
2022-10-02T07:18:45.038Z,7.30
2022-10-02T07:21:23.577Z,5.25
2022-10-02T07:23:57.789Z,6.70
2022-10-02T07:26:49.657Z,6.70
2022-10-02T07:29:33.320Z,6.15
2022-10-02T07:32:12.092Z,5.95
2022-10-02T07:34:53.421Z,6.65
2022-10-02T07:37:33.997Z,7.45
2022-10-02T07:40:31.671Z,6.22
2022-10-02T07:43:07.024Z,6.63
2022-10-02T07:45:39.656Z,6.57
2022-10-02T07:48:09.066Z,6.50
2022-10-02T07:50:37.601Z,6.75
2022-10-02T07:53:26.307Z,6.95
2022-10-02T07:55:53.875Z,7.80
2022-10-02T07:58:30.236Z,6.75
2022-10-02T08:01:01.376Z,7.18
2022-10-02T08:03:43.588Z,7.28
2022-10-02T08:06:10.486Z,7.82
2022-10-02T08:08:49.262Z,7.03
2022-10-02T08:11:28.284Z,7.13
2022-10-02T08:13:58.347Z,6.72
2022-10-02T08:16:29.951Z,7.43
2022-10-02T08:19:03.483Z,7.60
2022-10-02T08:21:35.119Z,7.03
2022-10-02T08:24:06.293Z,6.88
2022-10-02T08:26:42.965Z,7.15
2022-10-02T08:29:22.667Z,7.32
2022-10-02T08:31:52.149Z,7.93
2022-10-02T08:34:21.563Z,8.10
2022-10-02T08:36:59.688Z,9.45
2022-10-02T08:39:52.749Z,8.35
2022-10-02T08:42:37.555Z,7.93
2022-10-02T08:45:18.935Z,8.43
2022-10-02T08:48:33.822Z,8.82
2022-10-02T08:51:25.503Z,9.07
2022-10-02T08:54:12.115Z,8.55
2022-10-02T08:56:58.442Z,8.38
2022-10-02T09:00:02.961Z,9.05
2022-10-02T09:03:02.109Z,8.50
2022-10-02T09:05:31.972Z,8.80
2022-10-02T09:08:36.794Z,9.60
2022-10-02T09:11:36.561Z,10.27
2022-10-02T09:14:27.049Z,9.60
2022-10-02T09:17:10.418Z,9.88
2022-10-02T09:19:41.562Z,9.90
2022-10-02T09:22:47.944Z,10.25
2022-10-02T09:25:20.197Z,11.57
2022-10-02T09:28:18.006Z,9.43
2022-10-02T09:30:47.842Z,9.63
2022-10-02T09:33:35.202Z,9.30
2022-10-02T09:36:57.459Z,8.57
2022-10-02T09:39:34.873Z,8.93
2022-10-02T09:42:39.152Z,8.70
2022-10-02T09:45:42.794Z,8.38
2022-10-02T09:48:15.351Z,8.05
2022-10-02T09:51:10.041Z,7.38
2022-10-02T09:54:33.350Z,7.78
2022-10-02T09:57:24.847Z,6.43
2022-10-02T10:00:16.487Z,6.68
2022-10-02T10:03:19.008Z,6.00
2022-10-02T10:06:02.662Z,6.25
2022-10-02T10:09:02.165Z,6.25
2022-10-02T10:11:50.707Z,6.10
2022-10-02T10:14:56.547Z,7.00
2022-10-02T10:18:07.435Z,7.05
2022-10-02T10:21:01.697Z,5.82
2022-10-02T10:23:30.207Z,6.75
2022-10-02T10:26:38.978Z,6.68
2022-10-02T10:29:45.411Z,5.80
2022-10-02T10:32:18.830Z,6.85
2022-10-02T10:34:48.069Z,6.05
2022-10-02T10:37:45.452Z,5.57
2022-10-02T10:40:38.346Z,6.20
2022-10-02T10:43:26.723Z,5.70
2022-10-02T10:46:07.824Z,5.60
2022-10-02T10:48:49.346Z,4.60
2022-10-02T10:51:35.220Z,5.03
2022-10-02T10:54:17.122Z,3.95
2022-10-02T10:56:46.260Z,4.25
2022-10-02T10:59:34.502Z,4.20
2022-10-02T11:02:29.596Z,4.88
2022-10-02T11:05:07.090Z,4.70
2022-10-02T11:07:52.775Z,4.50
2022-10-02T11:10:37.899Z,5.85
2022-10-02T11:13:20.250Z,4.60
2022-10-02T11:16:13.456Z,4.63
2022-10-02T11:18:56.001Z,4.97
2022-10-02T11:22:00.928Z,4.47
2022-10-02T11:24:37.478Z,4.60
2022-10-02T11:27:40.852Z,3.80
2022-10-02T11:30:20.320Z,3.17
2022-10-02T11:33:20.349Z,3.65
2022-10-02T11:36:05.149Z,4.05
2022-10-02T11:38:53.080Z,4.00
2022-10-02T11:41:39.052Z,3.72
2022-10-02T11:44:33.573Z,4.00
2022-10-02T11:47:21.273Z,3.28
2022-10-02T11:50:18.947Z,3.00
2022-10-02T11:52:54.307Z,3.25
2022-10-02T11:55:43.866Z,3.13
2022-10-02T11:58:27.684Z,3.30
2022-10-02T12:01:00.185Z,4.45
2022-10-02T12:03:51.158Z,2.75
2022-10-02T12:09:08.955Z,3.00
2022-10-02T12:11:37.969Z,3.13
2022-10-02T12:14:45.923Z,3.40
2022-10-02T12:17:24.122Z,2.75
2022-10-02T12:20:30.546Z,2.85
2022-10-02T12:24:04.000Z,3.22
2022-10-02T12:27:13.569Z,3.00
2022-10-02T12:30:16.308Z,4.22
2022-10-02T12:33:07.983Z,3.30
2022-10-02T12:35:52.763Z,3.00
2022-10-02T12:38:49.753Z,3.05
2022-10-02T12:41:47.069Z,3.45
2022-10-02T12:44:58.131Z,2.95
2022-10-02T12:47:35.316Z,3.63
2022-10-02T12:50:36.611Z,3.13
2022-10-02T12:53:29.109Z,2.97
2022-10-02T12:56:37.037Z,4.10
2022-10-02T12:59:49.951Z,4.07
2022-10-02T13:02:56.256Z,4.78
2022-10-02T13:06:03.464Z,4.00
2022-10-02T13:08:51.656Z,4.25
2022-10-02T13:11:27.186Z,4.65
2022-10-02T13:14:11.946Z,4.15
2022-10-02T13:16:57.901Z,4.25
2022-10-02T13:19:59.725Z,4.22
2022-10-02T13:22:42.434Z,4.38
2022-10-02T13:25:27.135Z,4.45
2022-10-02T13:28:31.058Z,4.22
2022-10-02T13:30:57.401Z,4.60
2022-10-02T13:33:38.812Z,4.25
2022-10-02T13:36:12.981Z,4.10
2022-10-02T13:38:56.609Z,4.20
2022-10-02T13:41:46.559Z,4.82
2022-10-02T13:44:33.881Z,3.97
2022-10-02T13:47:07.806Z,4.57
2022-10-02T13:49:53.993Z,4.43
2022-10-02T13:52:36.198Z,3.70
2022-10-02T13:55:28.998Z,3.90
2022-10-02T13:58:14.176Z,5.28
2022-10-02T14:00:50.308Z,4.05
2022-10-02T14:03:44.590Z,4.80
2022-10-02T14:06:34.993Z,3.95
2022-10-02T14:09:11.007Z,4.18
2022-10-02T14:11:43.475Z,3.88
2022-10-02T14:14:12.836Z,4.25
2022-10-02T14:17:03.739Z,4.45
2022-10-02T14:20:00.581Z,4.95
2022-10-02T14:22:58.967Z,4.82
2022-10-02T14:25:56.807Z,4.13
2022-10-02T14:28:29.326Z,5.00
2022-10-02T14:31:17.594Z,4.10
2022-10-02T14:33:51.585Z,4.10
2022-10-02T14:36:24.495Z,4.72
2022-10-02T14:39:09.203Z,4.45
2022-10-02T14:41:51.598Z,3.40
2022-10-02T14:44:28.466Z,4.32
2022-10-02T14:47:34.775Z,4.10
2022-10-02T14:50:28.725Z,3.78
2022-10-02T14:53:19.536Z,4.38
2022-10-02T14:55:49.034Z,3.53
2022-10-02T14:58:40.256Z,3.50
2022-10-02T15:01:18.021Z,3.72
2022-10-02T15:04:16.427Z,3.17
2022-10-02T15:07:04.290Z,3.40
2022-10-02T15:10:02.760Z,2.70
2022-10-02T15:12:43.510Z,2.50
2022-10-02T15:15:18.970Z,2.65
2022-10-02T15:17:57.389Z,3.22
2022-10-02T15:20:59.385Z,3.08
2022-10-02T15:23:45.034Z,2.40
2022-10-02T15:26:33.133Z,2.63
2022-10-02T15:29:37.026Z,3.70
2022-10-02T15:32:45.285Z,2.97
2022-10-02T15:35:48.319Z,3.00
2022-10-02T15:38:40.385Z,3.22
2022-10-02T15:41:12.870Z,2.90
2022-10-02T15:44:21.950Z,2.45
2022-10-02T15:47:07.065Z,2.70
2022-10-02T15:49:51.531Z,3.10
2022-10-02T15:52:33.097Z,2.42
2022-10-02T15:55:25.034Z,2.88
2022-10-02T15:58:15.290Z,2.35
2022-10-02T16:01:03.538Z,2.88
2022-10-02T16:03:50.925Z,3.10
2022-10-02T16:06:53.402Z,2.85
2022-10-02T16:09:39.556Z,3.78
2022-10-02T16:12:15.077Z,3.30
2022-10-02T16:14:55.869Z,2.80
2022-10-02T16:17:33.880Z,3.00
2022-10-02T16:20:19.131Z,3.63
2022-10-02T16:22:50.178Z,2.53
2022-10-02T16:25:44.061Z,2.95
2022-10-02T16:28:13.776Z,2.60
2022-10-02T16:30:56.053Z,3.45
2022-10-02T16:33:42.717Z,3.17
2022-10-02T16:36:23.462Z,3.30
2022-10-02T16:38:51.940Z,3.08
2022-10-02T16:41:36.758Z,3.28
2022-10-02T16:44:22.244Z,3.75
2022-10-02T16:46:54.549Z,3.40
2022-10-02T16:49:42.283Z,3.50
2022-10-02T16:52:30.676Z,3.58
2022-10-02T16:55:21.287Z,4.25
2022-10-02T16:57:54.070Z,4.40
2022-10-02T17:00:26.124Z,3.75
2022-10-02T17:03:12.934Z,3.85
2022-10-02T17:05:49.423Z,3.53
2022-10-02T17:08:39.220Z,2.90
2022-10-02T17:11:20.173Z,4.53
2022-10-02T17:14:01.809Z,3.47
2022-10-02T17:16:56.205Z,3.90
2022-10-02T17:19:27.601Z,4.15
2022-10-02T17:21:59.317Z,4.10
2022-10-02T17:25:00.290Z,3.35
2022-10-02T17:27:32.719Z,3.85
2022-10-02T17:30:12.309Z,3.20
2022-10-02T17:32:50.143Z,3.58
2022-10-02T17:35:39.979Z,3.70
2022-10-02T17:38:09.087Z,3.63
2022-10-02T17:40:57.915Z,3.67
2022-10-02T17:43:24.512Z,5.18
2022-10-02T17:46:00.909Z,4.32
2022-10-02T17:48:43.450Z,4.00
2022-10-02T17:51:51.396Z,4.05
2022-10-02T17:54:55.858Z,5.20
2022-10-02T17:57:44.017Z,4.68
2022-10-02T18:00:17.564Z,4.32
2022-10-02T18:02:50.464Z,4.57
2022-10-02T18:05:53.586Z,4.10
2022-10-02T18:08:36.841Z,4.13
2022-10-02T18:11:07.859Z,5.07
2022-10-02T18:16:29.553Z,6.63
2022-10-02T18:19:14.863Z,3.63
2022-10-02T18:22:03.320Z,5.18
2022-10-02T18:24:32.585Z,4.43
2022-10-02T18:27:06.271Z,3.97
2022-10-02T18:29:46.789Z,4.30
2022-10-02T18:32:31.986Z,5.05
2022-10-02T18:35:09.562Z,4.03
2022-10-02T18:37:59.036Z,4.25
2022-10-02T18:40:34.027Z,5.07
2022-10-02T18:43:06.595Z,4.63
2022-10-02T18:45:46.571Z,4.97
2022-10-02T18:48:19.982Z,6.00
2022-10-02T18:51:11.346Z,5.32
2022-10-02T18:54:11.499Z,4.93
2022-10-02T18:56:59.620Z,5.30
2022-10-02T18:59:55.210Z,5.20
2022-10-02T19:02:36.485Z,6.40
2022-10-02T19:05:32.213Z,6.30
2022-10-02T19:08:04.472Z,5.25
2022-10-02T19:10:30.772Z,5.20
2022-10-02T19:13:04.672Z,5.85
2022-10-02T19:15:32.571Z,5.55
2022-10-02T19:18:36.734Z,6.35
2022-10-02T19:21:29.353Z,6.90
2022-10-02T19:24:04.547Z,5.10
2022-10-02T19:26:33.855Z,4.50
2022-10-02T19:29:00.202Z,4.80
2022-10-02T19:31:28.533Z,5.18
2022-10-02T19:34:17.727Z,5.40
2022-10-02T19:36:50.132Z,4.80
2022-10-02T19:39:20.589Z,4.50
2022-10-02T19:41:47.225Z,4.30
2022-10-02T19:45:03.081Z,4.22
2022-10-02T19:47:43.155Z,5.93
2022-10-02T19:50:20.051Z,4.72
2022-10-02T19:52:54.265Z,4.00
2022-10-02T19:55:26.639Z,5.35
2022-10-02T19:57:57.277Z,4.88
2022-10-02T20:00:23.738Z,4.15
2022-10-02T20:02:56.126Z,4.00
2022-10-02T20:05:28.249Z,4.55
2022-10-02T20:08:06.475Z,4.07
2022-10-02T20:10:43.660Z,4.13
2022-10-02T20:13:17.946Z,3.70
2022-10-02T20:16:10.186Z,5.00
2022-10-02T20:18:37.127Z,5.60
2022-10-02T20:21:15.844Z,4.78
2022-10-02T20:23:48.216Z,5.25
2022-10-02T20:26:17.155Z,6.10
2022-10-02T20:28:48.079Z,6.80
2022-10-02T20:31:20.486Z,5.60
2022-10-02T20:33:49.884Z,6.15
2022-10-02T20:36:19.710Z,6.55
2022-10-02T20:38:55.179Z,5.78
2022-10-02T20:41:24.448Z,6.28
2022-10-02T20:44:04.252Z,4.63
2022-10-02T20:46:33.663Z,5.57
2022-10-02T20:49:18.868Z,6.82
2022-10-02T20:51:49.299Z,5.32
2022-10-02T20:54:56.069Z,4.50
2022-10-02T20:57:56.418Z,4.97
2022-10-02T21:00:22.198Z,5.70
2022-10-02T21:03:10.122Z,6.35
2022-10-02T21:05:43.396Z,8.55
2022-10-02T21:08:58.262Z,8.35
2022-10-02T21:11:45.012Z,6.85
2022-10-02T21:14:29.508Z,7.00
2022-10-02T21:17:08.186Z,7.93
2022-10-02T21:20:16.571Z,7.45
2022-10-02T21:22:49.173Z,7.10
2022-10-02T21:25:35.509Z,8.02
2022-10-02T21:28:23.192Z,7.53
2022-10-02T21:31:28.774Z,7.60
2022-10-02T21:34:24.431Z,6.43
2022-10-02T21:36:58.503Z,7.75
2022-10-02T21:39:33.911Z,8.52
2022-10-02T21:42:38.188Z,8.30
2022-10-02T21:45:39.677Z,8.77
2022-10-02T21:48:30.461Z,8.45
2022-10-02T21:51:17.172Z,8.57
2022-10-02T21:54:21.045Z,8.60
2022-10-02T21:56:56.471Z,9.68
2022-10-02T21:59:57.779Z,10.43
2022-10-02T22:05:54.447Z,9.93
2022-10-02T22:08:28.835Z,10.60
2022-10-02T22:11:06.007Z,9.52
2022-10-02T22:13:40.762Z,10.20
2022-10-02T22:16:36.135Z,11.70
2022-10-02T22:19:35.627Z,11.20
2022-10-02T22:22:20.752Z,10.48
2022-10-02T22:25:10.992Z,11.30
2022-10-02T22:28:16.487Z,10.05
2022-10-02T22:31:03.114Z,11.02
2022-10-02T22:34:11.001Z,11.88
2022-10-02T22:36:59.299Z,10.98
2022-10-02T22:39:31.969Z,11.65
2022-10-02T22:42:19.847Z,13.57
2022-10-02T22:44:52.003Z,11.55
2022-10-02T22:47:18.296Z,10.93
2022-10-02T22:50:00.092Z,10.77
2022-10-02T22:52:34.824Z,11.38
2022-10-02T22:55:11.539Z,10.50
2022-10-02T22:57:46.320Z,9.93
2022-10-02T23:00:16.943Z,10.25
2022-10-02T23:02:57.188Z,9.68
2022-10-02T23:05:29.561Z,9.10
2022-10-02T23:08:06.631Z,9.05
2022-10-02T23:11:08.075Z,9.65
2022-10-02T23:13:41.934Z,9.65
2022-10-02T23:16:12.771Z,8.60
2022-10-02T23:18:46.013Z,8.35
2022-10-02T23:21:39.924Z,9.60
2022-10-02T23:24:11.414Z,8.82
2022-10-02T23:26:55.104Z,8.95
2022-10-02T23:29:47.910Z,9.10
2022-10-02T23:32:26.834Z,9.75
2022-10-02T23:35:05.273Z,9.35
2022-10-02T23:38:02.957Z,8.63
2022-10-02T23:41:28.200Z,8.63
2022-10-02T23:43:58.487Z,10.20
2022-10-02T23:46:32.266Z,9.13
2022-10-02T23:48:58.946Z,9.38
2022-10-02T23:51:40.296Z,8.82
2022-10-02T23:54:25.692Z,9.10
2022-10-02T23:57:26.080Z,11.25
